Pertusola — IBER — position and weather

sailwx.info

Track history (hours):
 
Tides and Currents Weather Stations Pressure Air Temp Water Temp Dewpoint Dewpoint Depression Visibility Wind Speed Wind Dir Waves Ship Positions

Pertusola

Last reported at 2016-Sep-26 15:33 UTC. Time now 2016-Oct-01 04:54 UTC.
Position N 34°39' W 009°39'.

Length 145 m; draft 7.2 m.

Type: Ship (hazmat cat A). MMSI: 247399000.

Date/timePositionNaut miles runAvg speedWind from/ knotsBaromVisibWave heightAir tempDewpointWater temp
2016-Sep-26 15:33N 34°39' W 009°39'  
2016-Sep-19 09:11N 33°08' W 008°38'345 7.4
2016-Sep-17 10:30N 29°30' W 013°50'1413.0
2016-Sep-17 09:27N 29°19' W 013°60'1113.0
2016-Sep-17 08:34N 29°10' W 014°07'1913.2
2016-Sep-17 07:08N 28°54' W 014°20'2113.1
2016-Sep-17 05:33N 28°38' W 014°35'1313.1
2016-Sep-17 04:33N 28°28' W 014°44'5213.0
2016-Sep-17 00:33N 27°39' W 015°05'  
Track history (hours):
 
Tides and Currents Weather Stations Pressure Air Temp Water Temp Dewpoint Dewpoint Depression Visibility Wind Speed Wind Dir Waves Ship Positions

Pertusola

Last reported at 2016-Sep-26 15:33 UTC. Time now 2016-Oct-01 04:54 UTC.
Position N 34°39' W 009°39'.

Length 145 m; draft 7.2 m.

Type: Ship (hazmat cat A). MMSI: 247399000.

Date/timePositionNaut miles runAvg speedWind from/ knotsBaromVisibWave heightAir tempDewpointWater temp
2016-Sep-26 15:33N 34°39' W 009°39'  
2016-Sep-19 09:11N 33°08' W 008°38'345 7.4
2016-Sep-17 10:30N 29°30' W 013°50'1413.0
2016-Sep-17 09:27N 29°19' W 013°60'1113.0
2016-Sep-17 08:34N 29°10' W 014°07'1913.2
2016-Sep-17 07:08N 28°54' W 014°20'2113.1
2016-Sep-17 05:33N 28°38' W 014°35'1313.1
2016-Sep-17 04:33N 28°28' W 014°44'5213.0
2016-Sep-17 00:33N 27°39' W 015°05'  

Dump ship's entire track history